GLO1436 SBSP-SBGO
Flight info
| Callsign | GLO1436 |
|---|---|
| Flight time | 1h 14m |
| Altitude | 36000 |
| Route | GERTU UZ25 CORVO |
| Aircraft | B738/M-SDE2E3FGHIRWXY/LB1 |
Departure
| Time | 2026-04-21 23:24 |
|---|---|
| Airport | Congonhas–Deputado Freitas Nobre Airport (SBSP) |
Arrival
| Time | 2026-04-22 00:38 |
|---|---|
| Airport | Santa Genoveva International Airport (SBGO) |
| Time | Latitude | Longitude | Altitude | Speed | Heading |
|---|---|---|---|---|---|
| 2026-04-21 23:13 | -23.62509 | -46.65963 | 2599 ft | 0 kts | 237° |
| 2026-04-21 23:18 | -23.62509 | -46.65962 | 2599 ft | 2 kts | 237° |
| 2026-04-21 23:18 | -23.62499 | -46.65940 | 2600 ft | 4 kts | 270° |
| 2026-04-21 23:18 | -23.62506 | -46.65915 | 2600 ft | 4 kts | 319° |
| 2026-04-21 23:18 | -23.62512 | -46.65910 | 2600 ft | 1 kts | 327° |
| 2026-04-21 23:20 | -23.62508 | -46.65910 | 2600 ft | 3 kts | 345° |
| 2026-04-21 23:20 | -23.62454 | -46.65924 | 2600 ft | 12 kts | 348° |
| 2026-04-21 23:20 | -23.62376 | -46.65956 | 2599 ft | 12 kts | 329° |
| 2026-04-21 23:21 | -23.62306 | -46.66004 | 2599 ft | 12 kts | 328° |
| 2026-04-21 23:21 | -23.62237 | -46.66047 | 2599 ft | 11 kts | 334° |
| 2026-04-21 23:21 | -23.62170 | -46.66089 | 2595 ft | 11 kts | 326° |
| 2026-04-21 23:21 | -23.62131 | -46.66117 | 2597 ft | 0 kts | 327° |
| 2026-04-21 23:22 | -23.62110 | -46.66130 | 2594 ft | 8 kts | 332° |
| 2026-04-21 23:22 | -23.62047 | -46.66119 | 2594 ft | 12 kts | 45° |
| 2026-04-21 23:22 | -23.62053 | -46.66073 | 2595 ft | 0 kts | 146° |
| 2026-04-21 23:23 | -23.62124 | -46.66023 | 2594 ft | 46 kts | 147° |
| 2026-04-21 23:23 | -23.62632 | -46.65671 | 2604 ft | 125 kts | 147° |
| 2026-04-21 23:23 | -23.63515 | -46.65058 | 2916 ft | 163 kts | 147° |
| 2026-04-21 23:24 | -23.64491 | -46.64393 | 3881 ft | 167 kts | 148° |
| 2026-04-21 23:24 | -23.65635 | -46.63991 | 4578 ft | 188 kts | 181° |
| 2026-04-21 23:24 | -23.67032 | -46.64165 | 4912 ft | 217 kts | 186° |
| 2026-04-21 23:24 | -23.68614 | -46.64354 | 5160 ft | 240 kts | 185° |
| 2026-04-21 23:25 | -23.70317 | -46.64513 | 5646 ft | 250 kts | 184° |
| 2026-04-21 23:25 | -23.72058 | -46.64648 | 6407 ft | 251 kts | 184° |
| 2026-04-21 23:25 | -23.73851 | -46.64779 | 6892 ft | 269 kts | 185° |
| 2026-04-21 23:25 | -23.75642 | -46.65419 | 7463 ft | 275 kts | 215° |
| 2026-04-21 23:26 | -23.76911 | -46.66999 | 8197 ft | 285 kts | 243° |
| 2026-04-21 23:26 | -23.77346 | -46.69118 | 8967 ft | 293 kts | 271° |
| 2026-04-21 23:26 | -23.77379 | -46.71342 | 9734 ft | 296 kts | 254° |
| 2026-04-21 23:26 | -23.78305 | -46.73336 | 10465 ft | 298 kts | 233° |
| 2026-04-21 23:27 | -23.79549 | -46.75241 | 10735 ft | 321 kts | 231° |
| 2026-04-21 23:27 | -23.80945 | -46.77228 | 11165 ft | 335 kts | 231° |
| 2026-04-21 23:27 | -23.82318 | -46.79278 | 12069 ft | 330 kts | 233° |
| 2026-04-21 23:27 | -23.83599 | -46.81310 | 13199 ft | 320 kts | 234° |
| 2026-04-21 23:28 | -23.84803 | -46.83273 | 14284 ft | 310 kts | 235° |
| 2026-04-21 23:28 | -23.85974 | -46.85205 | 15261 ft | 303 kts | 238° |
| 2026-04-21 23:28 | -23.86718 | -46.87341 | 16006 ft | 305 kts | 263° |
| 2026-04-21 23:28 | -23.86542 | -46.89644 | 16726 ft | 307 kts | 286° |
| 2026-04-21 23:29 | -23.85641 | -46.91768 | 17450 ft | 310 kts | 298° |
| 2026-04-21 23:29 | -23.84537 | -46.93800 | 18159 ft | 312 kts | 300° |
| 2026-04-21 23:29 | -23.83400 | -46.95830 | 18784 ft | 315 kts | 300° |
| 2026-04-21 23:29 | -23.82256 | -46.97876 | 19396 ft | 317 kts | 300° |
| 2026-04-21 23:30 | -23.81113 | -46.99943 | 20013 ft | 319 kts | 299° |
| 2026-04-21 23:30 | -23.79969 | -47.02029 | 20627 ft | 321 kts | 299° |
| 2026-04-21 23:30 | -23.78825 | -47.04131 | 21228 ft | 324 kts | 298° |
| 2026-04-21 23:30 | -23.77672 | -47.06252 | 21814 ft | 326 kts | 298° |
| 2026-04-21 23:31 | -23.76510 | -47.08389 | 22393 ft | 329 kts | 298° |
| 2026-04-21 23:31 | -23.75327 | -47.10539 | 22967 ft | 332 kts | 302° |
| 2026-04-21 23:31 | -23.73692 | -47.12352 | 23487 ft | 342 kts | 323° |
| 2026-04-21 23:31 | -23.71515 | -47.13444 | 23964 ft | 351 kts | 343° |
| 2026-04-21 23:32 | -23.69114 | -47.14006 | 24440 ft | 354 kts | 346° |
| 2026-04-21 23:32 | -23.67503 | -47.14330 | 24734 ft | 356 kts | 346° |
| 2026-04-21 23:32 | -23.65048 | -47.14820 | 25166 ft | 360 kts | 346° |
| 2026-04-21 23:32 | -23.62580 | -47.15338 | 25613 ft | 362 kts | 345° |
| 2026-04-21 23:33 | -23.60099 | -47.15876 | 26072 ft | 364 kts | 345° |
| 2026-04-21 23:33 | -23.57603 | -47.16423 | 26519 ft | 367 kts | 345° |
| 2026-04-21 23:33 | -23.55090 | -47.16976 | 26944 ft | 370 kts | 344° |
| 2026-04-21 23:33 | -23.52558 | -47.17533 | 27377 ft | 373 kts | 344° |
| 2026-04-21 23:34 | -23.50008 | -47.18092 | 27826 ft | 374 kts | 344° |
| 2026-04-21 23:34 | -23.47444 | -47.18654 | 28233 ft | 378 kts | 344° |
| 2026-04-21 23:34 | -23.44859 | -47.19219 | 28600 ft | 380 kts | 344° |
| 2026-04-21 23:34 | -23.42257 | -47.19790 | 28960 ft | 383 kts | 344° |
| 2026-04-21 23:35 | -23.39638 | -47.20363 | 29294 ft | 385 kts | 344° |
| 2026-04-21 23:35 | -23.37000 | -47.20940 | 29638 ft | 388 kts | 343° |
| 2026-04-21 23:35 | -23.34346 | -47.21521 | 29987 ft | 390 kts | 343° |
| 2026-04-21 23:35 | -23.31675 | -47.22105 | 30306 ft | 392 kts | 343° |
| 2026-04-21 23:36 | -23.28993 | -47.22691 | 30546 ft | 395 kts | 344° |
| 2026-04-21 23:36 | -23.26288 | -47.23282 | 30778 ft | 398 kts | 344° |
| 2026-04-21 23:36 | -23.23560 | -47.23876 | 31022 ft | 401 kts | 344° |
| 2026-04-21 23:36 | -23.20808 | -47.24475 | 31265 ft | 404 kts | 344° |
| 2026-04-21 23:37 | -23.18044 | -47.25077 | 31515 ft | 407 kts | 344° |
| 2026-04-21 23:37 | -23.15263 | -47.25682 | 31756 ft | 409 kts | 344° |
| 2026-04-21 23:37 | -23.12463 | -47.26293 | 31999 ft | 412 kts | 344° |
| 2026-04-21 23:37 | -23.09642 | -47.26907 | 32224 ft | 415 kts | 344° |
| 2026-04-21 23:38 | -23.06843 | -47.27517 | 32460 ft | 417 kts | 344° |
| 2026-04-21 23:38 | -23.03986 | -47.28138 | 32692 ft | 420 kts | 344° |
| 2026-04-21 23:38 | -23.01114 | -47.28762 | 32910 ft | 423 kts | 344° |
| 2026-04-21 23:38 | -22.98222 | -47.29390 | 33131 ft | 425 kts | 344° |
| 2026-04-21 23:39 | -22.95309 | -47.30022 | 33353 ft | 427 kts | 344° |
| 2026-04-21 23:39 | -22.92387 | -47.30655 | 33577 ft | 430 kts | 344° |
| 2026-04-21 23:39 | -22.89469 | -47.31288 | 33788 ft | 432 kts | 344° |
| 2026-04-21 23:39 | -22.86490 | -47.31934 | 33995 ft | 435 kts | 344° |
| 2026-04-21 23:40 | -22.83516 | -47.32579 | 34173 ft | 437 kts | 344° |
| 2026-04-21 23:40 | -22.80525 | -47.33227 | 34365 ft | 439 kts | 344° |
| 2026-04-21 23:40 | -22.77531 | -47.33875 | 34563 ft | 440 kts | 344° |
| 2026-04-21 23:40 | -22.74524 | -47.34525 | 34745 ft | 441 kts | 344° |
| 2026-04-21 23:41 | -22.71506 | -47.35179 | 34929 ft | 443 kts | 344° |
| 2026-04-21 23:41 | -22.68482 | -47.35862 | 35110 ft | 443 kts | 339° |
| 2026-04-21 23:41 | -22.65702 | -47.37171 | 35230 ft | 432 kts | 320° |
| 2026-04-21 23:41 | -22.63314 | -47.39102 | 35461 ft | 427 kts | 316° |
| 2026-04-21 23:42 | -22.60982 | -47.41100 | 35684 ft | 428 kts | 315° |
| 2026-04-21 23:42 | -22.58647 | -47.43108 | 35843 ft | 430 kts | 315° |
| 2026-04-21 23:42 | -22.56293 | -47.45113 | 36006 ft | 432 kts | 316° |
| 2026-04-21 23:42 | -22.53908 | -47.47120 | 36063 ft | 437 kts | 316° |
| 2026-04-21 23:43 | -22.49039 | -47.51179 | 36077 ft | 447 kts | 316° |
| 2026-04-21 23:43 | -22.44006 | -47.55283 | 36059 ft | 461 kts | 324° |
| 2026-04-21 23:44 | -22.41011 | -47.56652 | 36088 ft | 476 kts | 342° |
| 2026-04-21 23:44 | -22.37722 | -47.57315 | 36084 ft | 484 kts | 347° |
| 2026-04-21 23:44 | -22.30981 | -47.58352 | 36083 ft | 493 kts | 348° |
| 2026-04-21 23:45 | -22.20750 | -47.59942 | 36056 ft | 496 kts | 348° |
| 2026-04-21 23:46 | -22.13977 | -47.61067 | 36078 ft | 496 kts | 347° |
| 2026-04-21 23:46 | -22.07150 | -47.62219 | 36072 ft | 497 kts | 347° |
| 2026-04-21 23:47 | -22.00314 | -47.63368 | 36070 ft | 497 kts | 347° |
| 2026-04-21 23:47 | -21.93483 | -47.64512 | 36068 ft | 496 kts | 348° |
| 2026-04-21 23:48 | -21.86664 | -47.65652 | 36065 ft | 494 kts | 348° |
| 2026-04-21 23:48 | -21.79877 | -47.66786 | 36063 ft | 493 kts | 348° |
| 2026-04-21 23:49 | -21.73104 | -47.67915 | 36065 ft | 492 kts | 348° |
| 2026-04-21 23:49 | -21.66340 | -47.69043 | 36061 ft | 492 kts | 348° |
| 2026-04-21 23:50 | -21.59579 | -47.70169 | 36055 ft | 492 kts | 348° |
| 2026-04-21 23:50 | -21.52816 | -47.71283 | 36046 ft | 492 kts | 348° |
| 2026-04-21 23:51 | -21.46052 | -47.72393 | 36056 ft | 492 kts | 348° |
| 2026-04-21 23:51 | -21.39280 | -47.73504 | 36050 ft | 492 kts | 348° |
| 2026-04-21 23:52 | -21.32512 | -47.74615 | 36049 ft | 492 kts | 348° |
| 2026-04-21 23:52 | -21.25780 | -47.75719 | 36042 ft | 493 kts | 348° |
| 2026-04-21 23:53 | -21.18998 | -47.76831 | 36050 ft | 493 kts | 348° |
| 2026-04-21 23:53 | -21.12212 | -47.77925 | 36047 ft | 493 kts | 349° |
| 2026-04-21 23:54 | -21.05409 | -47.78863 | 36043 ft | 493 kts | 350° |
| 2026-04-21 23:54 | -20.98585 | -47.79761 | 36049 ft | 494 kts | 351° |
| 2026-04-21 23:55 | -20.91761 | -47.80676 | 36049 ft | 495 kts | 350° |
| 2026-04-21 23:55 | -20.84931 | -47.81606 | 36043 ft | 495 kts | 350° |
| 2026-04-21 23:56 | -20.78100 | -47.82537 | 36043 ft | 495 kts | 351° |
| 2026-04-21 23:56 | -20.71269 | -47.83468 | 36047 ft | 495 kts | 351° |
| 2026-04-21 23:57 | -20.64436 | -47.84396 | 36045 ft | 494 kts | 351° |
| 2026-04-21 23:57 | -20.57610 | -47.85323 | 36039 ft | 494 kts | 351° |
| 2026-04-21 23:58 | -20.50790 | -47.86248 | 36045 ft | 494 kts | 351° |
| 2026-04-21 23:58 | -20.44018 | -47.87168 | 36032 ft | 494 kts | 351° |
| 2026-04-21 23:59 | -20.37200 | -47.88092 | 36030 ft | 494 kts | 351° |
| 2026-04-21 23:59 | -20.30387 | -47.89014 | 36028 ft | 493 kts | 351° |
| 2026-04-22 00:00 | -20.23579 | -47.89935 | 36031 ft | 493 kts | 351° |
| 2026-04-22 00:00 | -20.16772 | -47.90856 | 36026 ft | 493 kts | 351° |
| 2026-04-22 00:01 | -20.09958 | -47.91776 | 36026 ft | 493 kts | 351° |
| 2026-04-22 00:01 | -20.03155 | -47.92696 | 36053 ft | 493 kts | 351° |
| 2026-04-22 00:02 | -19.96349 | -47.93615 | 36074 ft | 493 kts | 351° |
| 2026-04-22 00:02 | -19.89540 | -47.94532 | 36093 ft | 493 kts | 351° |
| 2026-04-22 00:03 | -19.82729 | -47.95450 | 36100 ft | 493 kts | 351° |
| 2026-04-22 00:03 | -19.75923 | -47.96366 | 36105 ft | 493 kts | 351° |
| 2026-04-22 00:04 | -19.69118 | -47.97281 | 36104 ft | 493 kts | 352° |
| 2026-04-22 00:04 | -19.62358 | -47.98190 | 36042 ft | 493 kts | 352° |
| 2026-04-22 00:05 | -19.55550 | -47.99104 | 36046 ft | 493 kts | 352° |
| 2026-04-22 00:05 | -19.48746 | -48.00016 | 36046 ft | 493 kts | 352° |
| 2026-04-22 00:06 | -19.41944 | -48.00927 | 36046 ft | 493 kts | 352° |
| 2026-04-22 00:06 | -19.35144 | -48.01838 | 36050 ft | 493 kts | 352° |
| 2026-04-22 00:07 | -19.28340 | -48.02752 | 36048 ft | 493 kts | 351° |
| 2026-04-22 00:07 | -19.21546 | -48.03712 | 36051 ft | 492 kts | 351° |
| 2026-04-22 00:08 | -19.14753 | -48.04684 | 36055 ft | 493 kts | 351° |
| 2026-04-22 00:08 | -19.07957 | -48.05649 | 36050 ft | 492 kts | 351° |
| 2026-04-22 00:09 | -19.01168 | -48.06608 | 36048 ft | 492 kts | 352° |
| 2026-04-22 00:09 | -18.94379 | -48.07566 | 36091 ft | 492 kts | 352° |
| 2026-04-22 00:10 | -18.87671 | -48.08937 | 36096 ft | 490 kts | 340° |
| 2026-04-22 00:10 | -18.81328 | -48.11416 | 36098 ft | 489 kts | 337° |
| 2026-04-22 00:11 | -18.75035 | -48.13980 | 36067 ft | 474 kts | 338° |
| 2026-04-22 00:11 | -18.71987 | -48.15181 | 35914 ft | 463 kts | 338° |
| 2026-04-22 00:11 | -18.68946 | -48.16356 | 35604 ft | 456 kts | 339° |
| 2026-04-22 00:11 | -18.66016 | -48.17476 | 35210 ft | 453 kts | 339° |
| 2026-04-22 00:12 | -18.63060 | -48.18599 | 34839 ft | 449 kts | 339° |
| 2026-04-22 00:12 | -18.60132 | -48.19710 | 34456 ft | 446 kts | 339° |
| 2026-04-22 00:12 | -18.57221 | -48.20815 | 34060 ft | 444 kts | 339° |
| 2026-04-22 00:12 | -18.54323 | -48.21914 | 33618 ft | 441 kts | 339° |
| 2026-04-22 00:13 | -18.51447 | -48.23006 | 33209 ft | 438 kts | 339° |
| 2026-04-22 00:13 | -18.48579 | -48.24096 | 32823 ft | 440 kts | 339° |
| 2026-04-22 00:13 | -18.45648 | -48.25210 | 32463 ft | 457 kts | 339° |
| 2026-04-22 00:13 | -18.42604 | -48.26367 | 32058 ft | 474 kts | 339° |
| 2026-04-22 00:14 | -18.39450 | -48.27566 | 31634 ft | 490 kts | 339° |
| 2026-04-22 00:14 | -18.36223 | -48.28789 | 31182 ft | 494 kts | 339° |
| 2026-04-22 00:14 | -18.33010 | -48.30006 | 30746 ft | 487 kts | 339° |
| 2026-04-22 00:14 | -18.29843 | -48.31204 | 30323 ft | 479 kts | 339° |
| 2026-04-22 00:15 | -18.26721 | -48.32387 | 29891 ft | 479 kts | 339° |
| 2026-04-22 00:15 | -18.23544 | -48.33591 | 29433 ft | 491 kts | 339° |
| 2026-04-22 00:15 | -18.20309 | -48.34817 | 29023 ft | 493 kts | 339° |
| 2026-04-22 00:15 | -18.17103 | -48.36032 | 28766 ft | 486 kts | 339° |
| 2026-04-22 00:16 | -18.13929 | -48.37235 | 28356 ft | 483 kts | 339° |
| 2026-04-22 00:16 | -18.10780 | -48.38428 | 27908 ft | 479 kts | 339° |
| 2026-04-22 00:16 | -18.07659 | -48.39612 | 27462 ft | 475 kts | 339° |
| 2026-04-22 00:16 | -18.04569 | -48.40782 | 27023 ft | 470 kts | 339° |
| 2026-04-22 00:17 | -18.01502 | -48.41944 | 26585 ft | 467 kts | 339° |
| 2026-04-22 00:17 | -17.98457 | -48.43097 | 26147 ft | 463 kts | 339° |
| 2026-04-22 00:17 | -17.95440 | -48.44238 | 25715 ft | 459 kts | 340° |
| 2026-04-22 00:17 | -17.92441 | -48.45373 | 25263 ft | 457 kts | 340° |
| 2026-04-22 00:18 | -17.90463 | -48.46122 | 24987 ft | 455 kts | 340° |
| 2026-04-22 00:18 | -17.87498 | -48.47244 | 24540 ft | 452 kts | 340° |
| 2026-04-22 00:18 | -17.84545 | -48.48360 | 24108 ft | 450 kts | 340° |
| 2026-04-22 00:18 | -17.81612 | -48.49468 | 23668 ft | 447 kts | 340° |
| 2026-04-22 00:19 | -17.78698 | -48.50570 | 23180 ft | 443 kts | 340° |
| 2026-04-22 00:19 | -17.75814 | -48.51659 | 22723 ft | 438 kts | 340° |
| 2026-04-22 00:19 | -17.72960 | -48.52736 | 22287 ft | 434 kts | 340° |
| 2026-04-22 00:19 | -17.70148 | -48.53833 | 21900 ft | 429 kts | 337° |
| 2026-04-22 00:20 | -17.67436 | -48.55071 | 21600 ft | 423 kts | 335° |
| 2026-04-22 00:20 | -17.64775 | -48.56374 | 21198 ft | 422 kts | 334° |
| 2026-04-22 00:20 | -17.62127 | -48.57689 | 20800 ft | 420 kts | 334° |
| 2026-04-22 00:20 | -17.59478 | -48.58992 | 20394 ft | 420 kts | 335° |
| 2026-04-22 00:21 | -17.56822 | -48.60282 | 19977 ft | 420 kts | 335° |
| 2026-04-22 00:21 | -17.54167 | -48.61559 | 19559 ft | 420 kts | 335° |
| 2026-04-22 00:21 | -17.51512 | -48.62830 | 19131 ft | 420 kts | 335° |
| 2026-04-22 00:21 | -17.48859 | -48.64097 | 18709 ft | 417 kts | 336° |
| 2026-04-22 00:22 | -17.46288 | -48.65325 | 18020 ft | 407 kts | 336° |
| 2026-04-22 00:22 | -17.43751 | -48.66537 | 17537 ft | 397 kts | 336° |
| 2026-04-22 00:22 | -17.41227 | -48.67741 | 17140 ft | 397 kts | 336° |
| 2026-04-22 00:22 | -17.38723 | -48.68937 | 16726 ft | 394 kts | 336° |
| 2026-04-22 00:23 | -17.36237 | -48.70123 | 16321 ft | 391 kts | 336° |
| 2026-04-22 00:23 | -17.33776 | -48.71297 | 15938 ft | 388 kts | 336° |
| 2026-04-22 00:23 | -17.31320 | -48.72470 | 15555 ft | 388 kts | 336° |
| 2026-04-22 00:23 | -17.28948 | -48.73807 | 15273 ft | 388 kts | 324° |
| 2026-04-22 00:24 | -17.26901 | -48.75641 | 15053 ft | 388 kts | 315° |
| 2026-04-22 00:24 | -17.25019 | -48.77656 | 14828 ft | 386 kts | 314° |
| 2026-04-22 00:24 | -17.23152 | -48.79667 | 14594 ft | 384 kts | 314° |
| 2026-04-22 00:24 | -17.21294 | -48.81665 | 14382 ft | 382 kts | 314° |
| 2026-04-22 00:25 | -17.19446 | -48.83643 | 14270 ft | 377 kts | 314° |
| 2026-04-22 00:25 | -17.17611 | -48.85598 | 14160 ft | 377 kts | 314° |
| 2026-04-22 00:25 | -17.15763 | -48.87562 | 14049 ft | 381 kts | 314° |
| 2026-04-22 00:25 | -17.13901 | -48.89538 | 13934 ft | 382 kts | 314° |
| 2026-04-22 00:26 | -17.12042 | -48.91509 | 13818 ft | 379 kts | 315° |
| 2026-04-22 00:26 | -17.10212 | -48.93446 | 13685 ft | 378 kts | 315° |
| 2026-04-22 00:26 | -17.08371 | -48.95394 | 13561 ft | 376 kts | 315° |
| 2026-04-22 00:26 | -17.06532 | -48.97339 | 13433 ft | 375 kts | 314° |
| 2026-04-22 00:27 | -17.04701 | -48.99276 | 13306 ft | 374 kts | 314° |
| 2026-04-22 00:27 | -17.02872 | -49.01209 | 13178 ft | 374 kts | 314° |
| 2026-04-22 00:27 | -17.01045 | -49.03142 | 13052 ft | 373 kts | 314° |
| 2026-04-22 00:27 | -16.99226 | -49.05063 | 12919 ft | 368 kts | 314° |
| 2026-04-22 00:28 | -16.97447 | -49.06942 | 12783 ft | 359 kts | 314° |
| 2026-04-22 00:28 | -16.95712 | -49.08774 | 12648 ft | 351 kts | 314° |
| 2026-04-22 00:28 | -16.94013 | -49.10568 | 12470 ft | 346 kts | 315° |
| 2026-04-22 00:28 | -16.92319 | -49.12356 | 12226 ft | 347 kts | 314° |
| 2026-04-22 00:29 | -16.90619 | -49.14150 | 11950 ft | 347 kts | 314° |
| 2026-04-22 00:29 | -16.88913 | -49.15951 | 11608 ft | 350 kts | 314° |
| 2026-04-22 00:29 | -16.87206 | -49.17752 | 11342 ft | 348 kts | 314° |
| 2026-04-22 00:29 | -16.85508 | -49.19543 | 11060 ft | 346 kts | 314° |
| 2026-04-22 00:30 | -16.83820 | -49.21321 | 10770 ft | 343 kts | 314° |
| 2026-04-22 00:30 | -16.82145 | -49.23085 | 10441 ft | 341 kts | 314° |
| 2026-04-22 00:30 | -16.80484 | -49.24835 | 10116 ft | 337 kts | 314° |
| 2026-04-22 00:30 | -16.78844 | -49.26563 | 9793 ft | 334 kts | 314° |
| 2026-04-22 00:31 | -16.77219 | -49.28274 | 9468 ft | 329 kts | 314° |
| 2026-04-22 00:31 | -16.75628 | -49.29948 | 9217 ft | 322 kts | 314° |
| 2026-04-22 00:31 | -16.74064 | -49.31593 | 8962 ft | 317 kts | 315° |
| 2026-04-22 00:31 | -16.72526 | -49.33213 | 8709 ft | 312 kts | 315° |
| 2026-04-22 00:32 | -16.71011 | -49.34808 | 8456 ft | 307 kts | 315° |
| 2026-04-22 00:32 | -16.69511 | -49.36385 | 8167 ft | 305 kts | 315° |
| 2026-04-22 00:32 | -16.68026 | -49.37948 | 7875 ft | 302 kts | 315° |
| 2026-04-22 00:32 | -16.66552 | -49.39499 | 7587 ft | 300 kts | 315° |
| 2026-04-22 00:33 | -16.65074 | -49.41020 | 7290 ft | 295 kts | 320° |
| 2026-04-22 00:33 | -16.63326 | -49.41987 | 6982 ft | 286 kts | 348° |
| 2026-04-22 00:33 | -16.61362 | -49.42056 | 6713 ft | 276 kts | 12° |
| 2026-04-22 00:33 | -16.59609 | -49.41433 | 6434 ft | 266 kts | 31° |
| 2026-04-22 00:34 | -16.58022 | -49.40493 | 6147 ft | 259 kts | 33° |
| 2026-04-22 00:34 | -16.56548 | -49.39488 | 5844 ft | 248 kts | 45° |
| 2026-04-22 00:34 | -16.55768 | -49.37988 | 5543 ft | 229 kts | 85° |
| 2026-04-22 00:34 | -16.55854 | -49.36404 | 5322 ft | 214 kts | 102° |
| 2026-04-22 00:35 | -16.56191 | -49.34940 | 5059 ft | 202 kts | 112° |
| 2026-04-22 00:35 | -16.56761 | -49.33646 | 4809 ft | 191 kts | 117° |
| 2026-04-22 00:35 | -16.57380 | -49.32472 | 4548 ft | 179 kts | 120° |
| 2026-04-22 00:35 | -16.57981 | -49.31401 | 4347 ft | 169 kts | 121° |
| 2026-04-22 00:36 | -16.58551 | -49.30389 | 4138 ft | 155 kts | 121° |
| 2026-04-22 00:36 | -16.59083 | -49.29453 | 3927 ft | 147 kts | 120° |
| 2026-04-22 00:36 | -16.59606 | -49.28539 | 3733 ft | 146 kts | 118° |
| 2026-04-22 00:36 | -16.60107 | -49.27613 | 3501 ft | 146 kts | 118° |
| 2026-04-22 00:37 | -16.60623 | -49.26708 | 3287 ft | 144 kts | 118° |
| 2026-04-22 00:37 | -16.61130 | -49.25795 | 3108 ft | 146 kts | 119° |
| 2026-04-22 00:37 | -16.61646 | -49.24876 | 2928 ft | 148 kts | 120° |
| 2026-04-22 00:37 | -16.62163 | -49.23952 | 2722 ft | 147 kts | 120° |
| 2026-04-22 00:38 | -16.62680 | -49.23029 | 2506 ft | 147 kts | 120° |
| 2026-04-22 00:38 | -16.63173 | -49.22150 | 2450 ft | 122 kts | 120° |
| 2026-04-22 00:38 | -16.63495 | -49.21576 | 2455 ft | 61 kts | 120° |
| 2026-04-22 00:38 | -16.63679 | -49.21250 | 2465 ft | 35 kts | 120° |
| 2026-04-22 00:39 | -16.63733 | -49.21112 | 2461 ft | 10 kts | 75° |
| 2026-04-22 00:39 | -16.63688 | -49.21061 | 2459 ft | 10 kts | 28° |
| 2026-04-22 00:39 | -16.63624 | -49.21028 | 2463 ft | 10 kts | 19° |
| 2026-04-22 00:39 | -16.63562 | -49.20997 | 2465 ft | 10 kts | 14° |
| 2026-04-22 00:40 | -16.63489 | -49.21008 | 2463 ft | 12 kts | 345° |
| 2026-04-22 00:40 | -16.63406 | -49.21033 | 2462 ft | 13 kts | 335° |
| 2026-04-22 00:40 | -16.63343 | -49.21105 | 2461 ft | 14 kts | 300° |
| 2026-04-22 00:40 | -16.63290 | -49.21201 | 2465 ft | 16 kts | 300° |
| 2026-04-22 00:41 | -16.63236 | -49.21299 | 2462 ft | 15 kts | 300° |
| 2026-04-22 00:41 | -16.63183 | -49.21392 | 2463 ft | 15 kts | 301° |
| 2026-04-22 00:41 | -16.63136 | -49.21475 | 2463 ft | 9 kts | 302° |
| 2026-04-22 00:41 | -16.63108 | -49.21478 | 2461 ft | 4 kts | 21° |
| 2026-04-22 00:42 | -16.63084 | -49.21460 | 2461 ft | 4 kts | 40° |
| 2026-04-22 00:42 | -16.63067 | -49.21445 | 2461 ft | 0 kts | 40° |